createdAt,value
2022-09-27T00:01:39.569Z,0.82
2022-09-27T00:05:21.631Z,1.00
2022-09-27T00:09:03.953Z,0.98
2022-09-27T00:12:45.915Z,0.98
2022-09-27T00:16:30.410Z,1.70
2022-09-27T00:20:12.515Z,1.17
2022-09-27T00:23:54.528Z,1.08
2022-09-27T00:27:36.404Z,1.15
2022-09-27T00:31:21.138Z,1.05
2022-09-27T00:35:03.239Z,0.73
2022-09-27T00:38:45.052Z,1.17
2022-09-27T00:42:26.840Z,1.10
2022-09-27T00:46:08.989Z,0.93
2022-09-27T00:50:07.956Z,1.20
2022-09-27T00:53:53.334Z,1.27
2022-09-27T00:57:35.611Z,1.42
2022-09-27T01:01:17.874Z,1.55
2022-09-27T01:05:01.165Z,1.40
2022-09-27T01:08:43.023Z,1.30
2022-09-27T01:12:42.942Z,1.45
2022-09-27T01:17:03.533Z,1.75
2022-09-27T01:20:51.099Z,0.93
2022-09-27T01:24:54.740Z,0.68
2022-09-27T01:28:56.172Z,1.45
2022-09-27T01:33:03.864Z,1.45
2022-09-27T01:37:16.346Z,1.20
2022-09-27T01:41:39.560Z,1.00
2022-09-27T01:45:44.348Z,0.98
2022-09-27T01:49:39.524Z,0.80
2022-09-27T01:53:40.883Z,1.30
2022-09-27T01:57:38.815Z,1.08
2022-09-27T02:01:22.914Z,1.33
2022-09-27T02:05:07.052Z,1.13
2022-09-27T02:09:05.635Z,0.73
2022-09-27T02:13:10.288Z,1.13
2022-09-27T02:16:53.471Z,0.95
2022-09-27T02:20:47.277Z,1.73
2022-09-27T02:24:38.722Z,0.98
2022-09-27T02:28:26.281Z,1.77
2022-09-27T02:32:08.078Z,0.90
2022-09-27T02:35:49.972Z,0.95
2022-09-27T02:39:31.776Z,1.10
2022-09-27T02:43:17.277Z,1.80
2022-09-27T02:47:08.823Z,1.40
2022-09-27T02:51:05.515Z,1.20
2022-09-27T02:55:17.397Z,0.88
2022-09-27T02:59:14.240Z,1.77
2022-09-27T03:03:03.068Z,2.28
2022-09-27T03:06:47.340Z,2.00
2022-09-27T03:10:29.599Z,1.27
2022-09-27T03:14:11.596Z,1.30
2022-09-27T03:17:53.413Z,1.48
2022-09-27T03:21:35.294Z,1.95
2022-09-27T03:25:17.152Z,1.20
2022-09-27T03:28:58.964Z,1.63
2022-09-27T03:32:47.368Z,1.33
2022-09-27T03:36:29.164Z,2.15
2022-09-27T03:40:11.182Z,1.92
2022-09-27T03:43:52.988Z,1.58
2022-09-27T03:47:34.743Z,2.13
2022-09-27T03:51:16.605Z,2.05
2022-09-27T03:55:01.948Z,1.90
2022-09-27T03:58:45.186Z,2.05
2022-09-27T04:02:28.115Z,2.00
2022-09-27T04:06:09.952Z,1.98
2022-09-27T04:09:51.748Z,3.05
2022-09-27T04:13:33.572Z,2.10
2022-09-27T04:17:15.334Z,2.55
2022-09-27T04:20:57.131Z,2.50
2022-09-27T04:24:39.415Z,3.13
2022-09-27T04:28:21.163Z,2.45
2022-09-27T04:32:02.963Z,2.22
2022-09-27T04:36:03.390Z,3.78
2022-09-27T04:39:45.205Z,3.10
2022-09-27T04:43:27.073Z,3.17
2022-09-27T04:47:09.306Z,2.83
2022-09-27T04:51:02.407Z,2.78
2022-09-27T04:54:44.252Z,2.30
2022-09-27T04:58:26.052Z,3.38
2022-09-27T05:02:07.913Z,2.83
2022-09-27T05:05:49.755Z,2.47
2022-09-27T05:09:31.521Z,3.20
2022-09-27T05:13:14.926Z,2.40
2022-09-27T05:16:56.823Z,2.80
2022-09-27T05:20:39.960Z,2.92
2022-09-27T05:24:21.756Z,2.40
2022-09-27T05:28:03.819Z,2.70
2022-09-27T05:31:45.716Z,2.20
2022-09-27T05:35:27.584Z,2.78
2022-09-27T05:39:09.738Z,2.28
2022-09-27T05:42:53.019Z,2.65
2022-09-27T05:46:34.969Z,3.00
2022-09-27T05:50:16.778Z,2.55
2022-09-27T05:53:58.780Z,3.08
2022-09-27T05:57:40.616Z,2.42
2022-09-27T06:01:22.491Z,2.60
2022-09-27T06:05:04.481Z,2.85
2022-09-27T06:08:46.309Z,2.58
2022-09-27T06:12:28.170Z,2.58
2022-09-27T06:16:12.080Z,2.80
2022-09-27T06:19:53.879Z,2.55
2022-09-27T06:23:35.836Z,2.85
2022-09-27T06:27:18.900Z,3.30
2022-09-27T06:31:01.218Z,2.10
2022-09-27T06:34:43.087Z,3.22
2022-09-27T06:38:25.996Z,2.75
2022-09-27T06:42:08.378Z,3.65
2022-09-27T06:45:51.253Z,2.55
2022-09-27T06:49:33.177Z,2.25
2022-09-27T06:53:16.862Z,2.60
2022-09-27T06:57:02.361Z,2.20
2022-09-27T07:00:47.783Z,2.13
2022-09-27T07:04:29.713Z,3.30
2022-09-27T07:08:14.479Z,3.17
2022-09-27T07:11:56.252Z,2.25
2022-09-27T07:15:40.557Z,2.40
2022-09-27T07:19:22.379Z,3.00
2022-09-27T07:23:08.719Z,2.90
2022-09-27T07:26:50.644Z,3.43
2022-09-27T07:30:33.740Z,3.20
2022-09-27T07:34:19.015Z,3.25
2022-09-27T07:38:00.888Z,3.95
2022-09-27T07:41:45.838Z,4.03
2022-09-27T07:45:27.777Z,3.58
2022-09-27T07:49:09.579Z,3.90
2022-09-27T07:52:51.429Z,3.25
2022-09-27T07:56:33.511Z,3.85
2022-09-27T08:00:17.451Z,3.83
2022-09-27T08:03:59.232Z,4.40
2022-09-27T08:07:41.404Z,4.13
2022-09-27T08:11:23.190Z,4.28
2022-09-27T08:15:05.482Z,4.53
2022-09-27T08:18:47.253Z,4.93
2022-09-27T08:22:29.073Z,4.90
2022-09-27T08:26:10.920Z,4.25
2022-09-27T08:29:52.715Z,4.95
2022-09-27T08:33:40.502Z,5.38
2022-09-27T08:37:23.224Z,4.78
2022-09-27T08:41:39.795Z,4.38
2022-09-27T08:49:41.383Z,4.63
2022-09-27T08:53:26.352Z,5.13
2022-09-27T08:57:17.676Z,4.30
2022-09-27T09:01:06.472Z,4.35
2022-09-27T09:04:53.372Z,4.88
2022-09-27T09:12:47.444Z,4.38
2022-09-27T09:16:51.408Z,3.63
2022-09-27T09:20:49.165Z,4.20
2022-09-27T09:25:21.865Z,3.78
2022-09-27T09:29:25.253Z,4.65
2022-09-27T09:33:23.088Z,3.97
2022-09-27T09:37:12.939Z,4.10
2022-09-27T09:41:13.163Z,3.63
2022-09-27T09:45:12.880Z,3.80
2022-09-27T09:49:07.398Z,4.97
2022-09-27T09:52:54.412Z,3.58
2022-09-27T09:56:45.735Z,2.40
2022-09-27T10:00:27.533Z,2.67
2022-09-27T10:04:28.691Z,3.00
2022-09-27T10:08:21.701Z,2.72
2022-09-27T10:12:03.829Z,3.08
2022-09-27T10:16:10.283Z,2.83
2022-09-27T10:19:54.289Z,2.67
2022-09-27T10:23:37.464Z,2.60
2022-09-27T10:27:19.348Z,2.53
2022-09-27T10:31:10.638Z,2.45
2022-09-27T10:34:52.723Z,2.40
2022-09-27T10:38:36.885Z,3.30
2022-09-27T10:42:34.122Z,2.88
2022-09-27T10:46:28.651Z,2.53
2022-09-27T10:50:49.182Z,2.70
2022-09-27T10:54:30.218Z,3.20
2022-09-27T10:58:31.053Z,3.38
2022-09-27T11:02:37.184Z,2.33
2022-09-27T11:06:25.222Z,3.25
2022-09-27T11:10:36.283Z,2.95
2022-09-27T11:14:25.250Z,3.25
2022-09-27T11:18:24.711Z,3.10
2022-09-27T11:22:24.639Z,3.80
2022-09-27T11:26:54.443Z,3.30
2022-09-27T11:31:00.035Z,3.00
2022-09-27T11:34:58.227Z,3.47
2022-09-27T11:38:53.634Z,3.22
2022-09-27T11:43:01.615Z,3.23
2022-09-27T11:46:48.019Z,3.30
2022-09-27T11:51:02.508Z,3.97
2022-09-27T11:55:07.513Z,3.90
2022-09-27T11:59:04.439Z,3.70
2022-09-27T12:03:09.926Z,3.60
2022-09-27T12:07:05.748Z,3.70
2022-09-27T12:10:51.628Z,4.03
2022-09-27T12:14:33.369Z,3.70
2022-09-27T12:18:32.391Z,3.63
2022-09-27T12:22:34.701Z,3.47
2022-09-27T12:26:29.425Z,3.58
2022-09-27T12:30:13.700Z,3.10
2022-09-27T12:34:10.779Z,2.70
2022-09-27T12:37:58.364Z,2.88
2022-09-27T12:41:44.085Z,2.97
2022-09-27T12:45:49.768Z,3.10
2022-09-27T12:50:02.015Z,2.22
2022-09-27T12:53:52.196Z,2.75
2022-09-27T12:58:02.781Z,2.42
2022-09-27T13:02:11.494Z,2.85
2022-09-27T13:06:20.630Z,3.03
2022-09-27T13:10:19.233Z,2.58
2022-09-27T13:14:03.181Z,2.83
2022-09-27T13:17:44.955Z,2.92
2022-09-27T13:21:51.595Z,2.25
2022-09-27T13:25:59.776Z,2.97
2022-09-27T13:29:42.151Z,2.53
2022-09-27T13:33:52.535Z,2.95
2022-09-27T13:37:44.492Z,2.35
2022-09-27T13:41:26.327Z,3.22
2022-09-27T13:45:33.806Z,3.53
2022-09-27T13:49:23.523Z,2.85
2022-09-27T13:53:16.177Z,2.97
2022-09-27T13:56:58.055Z,2.75
2022-09-27T14:00:44.140Z,2.65
2022-09-27T14:04:49.135Z,3.88
2022-09-27T14:08:35.236Z,3.17
2022-09-27T14:12:20.912Z,3.80
2022-09-27T14:16:05.283Z,3.17
2022-09-27T14:19:50.803Z,3.63
2022-09-27T14:23:32.603Z,3.97
2022-09-27T14:27:17.469Z,3.15
2022-09-27T14:31:26.621Z,4.00
2022-09-27T14:35:33.991Z,3.58
2022-09-27T14:39:22.546Z,3.75
2022-09-27T14:43:04.484Z,4.00
2022-09-27T14:46:47.423Z,3.78
2022-09-27T14:50:30.723Z,3.67
2022-09-27T14:54:22.003Z,3.92
2022-09-27T14:58:05.171Z,3.60
2022-09-27T15:01:51.334Z,3.88
2022-09-27T15:05:34.644Z,4.97
2022-09-27T15:09:19.375Z,5.10
2022-09-27T15:13:05.186Z,4.38
2022-09-27T15:16:49.539Z,4.45
2022-09-27T15:20:35.739Z,3.58
2022-09-27T15:24:52.875Z,4.50
2022-09-27T15:28:39.299Z,4.50
2022-09-27T15:32:24.809Z,4.22
2022-09-27T15:36:10.068Z,3.67
2022-09-27T15:39:51.849Z,3.70
2022-09-27T15:43:41.255Z,2.55
2022-09-27T15:47:32.065Z,4.07
2022-09-27T15:51:53.616Z,3.28
2022-09-27T15:55:45.358Z,3.30
2022-09-27T15:59:29.256Z,2.58
2022-09-27T16:03:11.369Z,2.45
2022-09-27T16:06:56.335Z,2.53
2022-09-27T16:10:40.874Z,2.53
2022-09-27T16:14:22.646Z,2.58
2022-09-27T16:18:04.631Z,3.13
2022-09-27T16:21:48.494Z,2.67
2022-09-27T16:25:30.370Z,1.90
2022-09-27T16:29:14.137Z,2.70
2022-09-27T16:32:56.547Z,2.63
2022-09-27T16:36:39.184Z,2.80
2022-09-27T16:40:21.173Z,2.65
2022-09-27T16:44:14.135Z,3.47
2022-09-27T16:47:55.967Z,2.55
2022-09-27T16:51:56.524Z,2.65
2022-09-27T16:55:38.306Z,3.17
2022-09-27T16:59:21.095Z,1.83
2022-09-27T17:03:02.898Z,1.90
2022-09-27T17:06:44.692Z,2.60
2022-09-27T17:10:26.530Z,1.95
2022-09-27T17:14:16.170Z,2.05
2022-09-27T17:17:58.031Z,2.08
2022-09-27T17:21:40.685Z,2.40
2022-09-27T17:25:22.563Z,1.88
2022-09-27T17:29:08.002Z,2.58
2022-09-27T17:32:50.200Z,2.10
2022-09-27T17:36:35.117Z,2.33
2022-09-27T17:40:19.640Z,1.65
2022-09-27T17:44:02.350Z,1.70
2022-09-27T17:48:02.546Z,1.35
2022-09-27T17:51:52.357Z,2.50
2022-09-27T17:55:34.163Z,2.22
2022-09-27T17:59:17.521Z,1.95
2022-09-27T18:03:00.407Z,2.35
2022-09-27T18:06:44.645Z,1.55
2022-09-27T18:10:27.397Z,1.50
2022-09-27T18:14:10.720Z,2.35
2022-09-27T18:17:57.852Z,1.80
2022-09-27T18:21:40.107Z,1.73
2022-09-27T18:25:22.056Z,1.52
2022-09-27T18:29:07.104Z,2.03
2022-09-27T18:32:50.642Z,2.03
2022-09-27T18:36:32.808Z,2.22
2022-09-27T18:40:24.071Z,2.13
2022-09-27T18:44:15.459Z,1.98
2022-09-27T18:47:57.385Z,2.13
2022-09-27T18:51:49.573Z,2.45
2022-09-27T18:55:31.680Z,1.80
2022-09-27T18:59:13.521Z,1.95
2022-09-27T19:02:55.596Z,2.53
2022-09-27T19:06:38.677Z,1.33
2022-09-27T19:10:20.483Z,1.80
2022-09-27T19:14:02.824Z,1.83
2022-09-27T19:17:44.719Z,1.35
2022-09-27T19:21:28.759Z,1.45
2022-09-27T19:25:10.859Z,1.60
2022-09-27T19:28:53.334Z,1.70
2022-09-27T19:32:35.141Z,1.42
2022-09-27T19:36:18.963Z,1.80
2022-09-27T19:40:00.883Z,2.58
2022-09-27T19:43:47.496Z,1.83
2022-09-27T19:47:29.560Z,1.98
2022-09-27T19:51:19.517Z,2.03
2022-09-27T19:55:01.443Z,1.67
2022-09-27T19:58:43.996Z,1.38
2022-09-27T20:02:26.051Z,2.28
2022-09-27T20:06:10.688Z,1.60
2022-09-27T20:09:52.990Z,1.52
2022-09-27T20:13:36.112Z,1.65
2022-09-27T20:17:17.981Z,2.80
2022-09-27T20:21:02.207Z,1.45
2022-09-27T20:24:44.194Z,1.75
2022-09-27T20:28:26.614Z,1.73
2022-09-27T20:32:26.635Z,2.20
2022-09-27T20:36:21.286Z,1.30
2022-09-27T20:40:07.479Z,1.45
2022-09-27T20:43:53.202Z,2.03
2022-09-27T20:47:35.148Z,2.40
2022-09-27T20:51:17.180Z,2.35
2022-09-27T20:54:58.948Z,2.05
2022-09-27T20:58:40.773Z,1.50
2022-09-27T21:02:23.137Z,2.28
2022-09-27T21:06:05.211Z,1.67
2022-09-27T21:09:46.969Z,1.80
2022-09-27T21:13:28.722Z,1.60
2022-09-27T21:17:10.572Z,1.58
2022-09-27T21:21:05.238Z,1.20
2022-09-27T21:24:47.000Z,1.85
2022-09-27T21:28:37.225Z,1.63
2022-09-27T21:32:19.031Z,1.48
2022-09-27T21:36:01.860Z,1.55
2022-09-27T21:39:43.633Z,1.70
2022-09-27T21:43:27.324Z,1.98
2022-09-27T21:47:09.164Z,2.65
2022-09-27T21:50:51.024Z,2.03
2022-09-27T21:54:32.853Z,1.75
2022-09-27T21:58:14.635Z,1.92
2022-09-27T22:01:56.522Z,2.08
2022-09-27T22:05:45.847Z,1.60
2022-09-27T22:09:27.815Z,1.65
2022-09-27T22:13:09.672Z,1.58
2022-09-27T22:16:51.520Z,1.80
2022-09-27T22:20:33.323Z,1.85
2022-09-27T22:24:17.856Z,2.15
2022-09-27T22:27:59.629Z,2.47
2022-09-27T22:31:41.579Z,2.92
2022-09-27T22:35:23.437Z,1.83
2022-09-27T22:39:05.384Z,2.15
2022-09-27T22:42:47.443Z,2.25
2022-09-27T22:46:29.376Z,1.70
2022-09-27T22:50:14.059Z,2.03
2022-09-27T22:53:56.199Z,1.92
2022-09-27T22:57:38.129Z,2.33
2022-09-27T23:01:22.368Z,1.85
2022-09-27T23:05:04.514Z,2.00
2022-09-27T23:08:47.448Z,1.83
2022-09-27T23:12:29.215Z,2.30
2022-09-27T23:16:13.548Z,1.83
2022-09-27T23:19:55.446Z,2.08
2022-09-27T23:23:42.513Z,1.55
2022-09-27T23:40:27.733Z,1.63
2022-09-27T23:44:09.607Z,2.17
2022-09-27T23:47:51.385Z,2.05
2022-09-27T23:51:33.346Z,2.22
2022-09-27T23:55:15.343Z,2.15
2022-09-27T23:58:57.979Z,1.90
